createdAt,value
2022-10-21T00:03:37.667Z,3.60
2022-10-21T00:08:01.729Z,4.83
2022-10-21T00:12:16.710Z,4.03
2022-10-21T00:17:10.031Z,3.60
2022-10-21T00:26:36.200Z,6.27
2022-10-21T00:30:58.333Z,5.33
2022-10-21T00:39:57.669Z,5.43
2022-10-21T00:44:18.456Z,5.53
2022-10-21T00:48:36.083Z,6.23
2022-10-21T00:52:45.667Z,6.30
2022-10-21T00:56:57.569Z,5.67
2022-10-21T01:05:34.588Z,7.13
2022-10-21T01:09:43.846Z,7.03
2022-10-21T01:14:27.374Z,6.77
2022-10-21T01:24:31.613Z,5.43
2022-10-21T01:29:33.168Z,6.00
2022-10-21T01:33:53.287Z,5.37
2022-10-21T01:38:17.109Z,6.97
2022-10-21T01:42:48.825Z,6.43
2022-10-21T01:47:01.348Z,6.47
2022-10-21T01:51:21.086Z,6.50
2022-10-21T01:55:33.711Z,5.93
2022-10-21T01:59:57.633Z,7.20
2022-10-21T02:04:16.911Z,6.07
2022-10-21T02:08:29.273Z,7.57
2022-10-21T02:12:44.748Z,7.50
2022-10-21T02:16:55.971Z,7.67
2022-10-21T02:21:20.587Z,7.23
2022-10-21T02:25:59.765Z,6.80
2022-10-21T02:30:51.425Z,6.47
2022-10-21T02:36:08.407Z,7.27
2022-10-21T02:40:26.770Z,7.13
2022-10-21T02:44:50.108Z,7.27
2022-10-21T02:49:35.068Z,7.27
2022-10-21T02:53:57.889Z,8.07
2022-10-21T02:58:14.950Z,8.13
2022-10-21T03:02:30.670Z,8.87
2022-10-21T03:07:02.350Z,8.83
2022-10-21T03:15:52.986Z,8.23
2022-10-21T03:20:12.249Z,8.87
2022-10-21T03:24:29.065Z,9.07
2022-10-21T03:28:50.510Z,9.23
2022-10-21T03:33:17.727Z,10.40
2022-10-21T03:37:34.685Z,9.13
2022-10-21T03:46:14.105Z,9.83
2022-10-21T03:50:27.253Z,11.90
2022-10-21T03:54:41.051Z,9.67
2022-10-21T03:58:58.554Z,10.00
2022-10-21T04:03:11.108Z,9.00
2022-10-21T04:07:22.464Z,9.60
2022-10-21T04:11:50.790Z,9.43
2022-10-21T04:16:01.383Z,9.37
2022-10-21T04:20:13.685Z,9.07
2022-10-21T04:24:25.310Z,10.43
2022-10-21T04:28:38.290Z,9.63
2022-10-21T04:32:49.287Z,9.23
2022-10-21T04:37:34.070Z,9.57
2022-10-21T04:41:46.329Z,8.40
2022-10-21T04:46:53.771Z,9.33
2022-10-21T04:51:11.705Z,10.80
2022-10-21T05:00:05.729Z,9.40
2022-10-21T05:04:18.994Z,10.27
2022-10-21T05:09:37.575Z,9.87
2022-10-21T05:14:07.189Z,9.17
2022-10-21T05:18:30.929Z,8.77
2022-10-21T05:22:52.791Z,10.13
2022-10-21T05:27:07.730Z,9.60
2022-10-21T05:31:43.164Z,9.90
2022-10-21T05:36:07.046Z,9.27
2022-10-21T05:40:38.295Z,9.63
2022-10-21T05:45:12.510Z,9.63
2022-10-21T05:49:50.690Z,10.07
2022-10-21T05:54:29.765Z,7.60
2022-10-21T05:58:48.307Z,8.03
2022-10-21T06:03:04.688Z,8.23
2022-10-21T06:07:56.309Z,8.77
2022-10-21T06:12:11.110Z,9.80
2022-10-21T06:21:37.190Z,8.83
2022-10-21T06:26:18.027Z,9.30
2022-10-21T06:31:00.666Z,8.87
2022-10-21T06:35:13.668Z,8.17
2022-10-21T06:39:22.992Z,8.50
2022-10-21T06:43:57.670Z,9.63
2022-10-21T06:53:07.590Z,9.47
2022-10-21T06:57:35.191Z,8.97
2022-10-21T07:02:06.361Z,8.90
2022-10-21T07:06:26.426Z,9.60
2022-10-21T07:11:18.851Z,8.63
2022-10-21T07:15:31.225Z,9.00
2022-10-21T07:20:22.049Z,8.83
2022-10-21T07:24:54.960Z,7.87
2022-10-21T07:29:07.710Z,8.57
2022-10-21T07:37:52.931Z,10.23
2022-10-21T07:42:32.567Z,8.57
2022-10-21T07:47:02.809Z,8.67
2022-10-21T07:51:18.207Z,8.57
2022-10-21T07:55:37.607Z,9.57
2022-10-21T07:59:47.988Z,9.73
2022-10-21T08:03:57.929Z,8.20
2022-10-21T08:08:28.425Z,9.30
2022-10-21T08:12:39.627Z,8.47
2022-10-21T08:16:55.689Z,8.90
2022-10-21T08:21:08.727Z,8.50
2022-10-21T08:25:18.668Z,8.90
2022-10-21T08:29:37.694Z,9.17
2022-10-21T08:33:57.432Z,7.97
2022-10-21T08:42:19.709Z,7.80
2022-10-21T08:46:35.827Z,8.40
2022-10-21T08:50:53.850Z,7.13
2022-10-21T08:55:11.647Z,7.40
2022-10-21T08:59:43.969Z,8.03
2022-10-21T09:04:04.846Z,8.17
2022-10-21T09:08:37.856Z,8.03
2022-10-21T09:13:02.391Z,8.13
2022-10-21T09:17:40.183Z,8.70
2022-10-21T09:22:16.377Z,7.17
2022-10-21T09:26:43.845Z,7.83
2022-10-21T09:30:53.470Z,7.93
2022-10-21T09:35:08.390Z,8.33
2022-10-21T09:39:23.288Z,7.20
2022-10-21T09:43:32.750Z,8.33
2022-10-21T09:47:43.909Z,8.57
2022-10-21T09:51:54.236Z,7.20
2022-10-21T09:56:12.131Z,8.23
2022-10-21T10:00:22.006Z,7.93
2022-10-21T10:04:36.686Z,8.17
2022-10-21T10:08:54.238Z,7.37
2022-10-21T10:13:05.250Z,7.63
2022-10-21T10:17:31.767Z,7.90
2022-10-21T10:21:45.789Z,7.87
2022-10-21T10:25:59.870Z,7.13
2022-10-21T10:30:18.950Z,9.03
2022-10-21T10:34:36.769Z,7.77
2022-10-21T10:43:33.690Z,8.17
2022-10-21T10:47:50.069Z,7.93
2022-10-21T10:52:24.678Z,7.00
2022-10-21T10:56:46.791Z,7.73
2022-10-21T11:01:02.729Z,8.47
2022-10-21T11:05:32.726Z,7.53
2022-10-21T11:09:45.325Z,7.53
2022-10-21T11:18:34.487Z,8.07
2022-10-21T11:23:01.954Z,8.13
2022-10-21T11:28:04.986Z,8.77
2022-10-21T11:32:29.128Z,8.57
2022-10-21T11:36:52.888Z,7.97
2022-10-21T11:46:38.586Z,8.13
2022-10-21T11:51:16.636Z,8.13
2022-10-21T12:00:20.534Z,7.57
2022-10-21T12:04:48.851Z,8.40
2022-10-21T12:09:28.634Z,7.80
2022-10-21T12:14:08.527Z,8.00
2022-10-21T12:18:29.004Z,7.67
2022-10-21T12:22:43.846Z,8.00
2022-10-21T12:27:12.470Z,8.77
2022-10-21T12:32:02.013Z,7.87
2022-10-21T12:36:22.404Z,7.83
2022-10-21T12:40:43.149Z,7.07
2022-10-21T12:45:09.570Z,8.97
2022-10-21T12:49:48.861Z,7.87
2022-10-21T12:54:33.327Z,7.60
2022-10-21T12:58:49.029Z,9.27
2022-10-21T13:07:39.913Z,8.27
2022-10-21T13:12:06.127Z,10.03
2022-10-21T13:16:38.849Z,9.63
2022-10-21T13:21:00.877Z,9.67
2022-10-21T13:25:23.707Z,8.67
2022-10-21T13:29:50.507Z,8.00
2022-10-21T13:34:00.788Z,10.03
2022-10-21T13:38:23.350Z,9.50
2022-10-21T13:42:52.409Z,8.03
2022-10-21T13:47:34.454Z,8.77
2022-10-21T13:51:49.210Z,8.27
2022-10-21T13:56:06.547Z,9.30
2022-10-21T14:00:21.588Z,8.40
2022-10-21T14:04:34.008Z,8.40
2022-10-21T14:08:46.329Z,9.17
2022-10-21T14:17:10.348Z,9.67
2022-10-21T14:21:24.408Z,10.90
2022-10-21T14:25:34.988Z,9.57
2022-10-21T14:29:45.885Z,10.83
2022-10-21T14:33:55.648Z,10.17
2022-10-21T14:38:28.450Z,10.80
2022-10-21T14:42:38.213Z,10.20
2022-10-21T14:46:49.765Z,8.63
2022-10-21T14:51:01.573Z,5.43
2022-10-21T14:55:17.610Z,5.43
2022-10-21T14:59:32.169Z,5.37
2022-10-21T15:03:45.707Z,6.27
2022-10-21T15:08:29.239Z,9.17
2022-10-21T15:12:43.967Z,9.87
2022-10-21T15:17:03.746Z,8.77
2022-10-21T15:21:16.888Z,10.00
2022-10-21T15:25:27.787Z,8.53
2022-10-21T15:29:40.825Z,8.87
2022-10-21T15:33:59.907Z,9.43
2022-10-21T15:38:16.648Z,9.53
2022-10-21T15:42:27.607Z,9.13
2022-10-21T15:46:46.922Z,10.53
2022-10-21T15:51:05.929Z,9.17
2022-10-21T15:55:17.050Z,9.73
2022-10-21T16:04:07.509Z,8.70
2022-10-21T16:08:20.116Z,8.00
2022-10-21T16:12:37.720Z,7.90
2022-10-21T16:16:50.747Z,8.33
2022-10-21T16:21:17.309Z,7.90
2022-10-21T16:25:29.008Z,8.70
2022-10-21T16:29:39.388Z,9.30
2022-10-21T16:38:15.399Z,8.47
2022-10-21T16:42:30.226Z,8.60
2022-10-21T16:56:21.726Z,9.80
2022-10-21T17:00:38.136Z,9.27
2022-10-21T17:04:48.749Z,9.00
2022-10-21T17:09:00.015Z,9.50
2022-10-21T17:13:18.167Z,8.97
2022-10-21T17:17:33.607Z,8.87
2022-10-21T17:21:58.185Z,8.73
2022-10-21T17:31:17.228Z,9.20
2022-10-21T17:41:24.367Z,9.90
2022-10-21T17:45:52.247Z,9.30
2022-10-21T17:50:01.485Z,10.03
2022-10-21T17:54:15.369Z,8.07
2022-10-21T18:07:42.163Z,6.20
2022-10-21T18:11:52.113Z,6.03
2022-10-21T18:16:05.468Z,5.67
2022-10-21T18:20:18.686Z,6.13
2022-10-21T18:24:31.284Z,5.80
2022-10-21T18:28:40.452Z,6.97
2022-10-21T18:32:49.767Z,5.63
2022-10-21T18:37:00.770Z,5.73
2022-10-21T18:41:20.084Z,5.90
2022-10-21T18:45:31.464Z,6.50
2022-10-21T18:49:41.005Z,6.97
2022-10-21T18:53:53.177Z,5.83
2022-10-21T18:58:02.627Z,6.53
2022-10-21T19:02:19.164Z,5.97
2022-10-21T19:06:38.335Z,6.73
2022-10-21T19:10:49.346Z,5.87
2022-10-21T19:14:58.527Z,5.70
2022-10-21T19:19:08.490Z,5.43
2022-10-21T19:23:17.708Z,5.23
2022-10-21T19:27:40.732Z,5.57
2022-10-21T19:31:50.548Z,5.03
2022-10-21T19:36:01.609Z,4.83
2022-10-21T19:40:14.167Z,5.27
2022-10-21T19:44:28.704Z,5.47
2022-10-21T19:48:38.491Z,6.03
2022-10-21T19:52:47.668Z,6.70
2022-10-21T19:56:57.035Z,6.50
2022-10-21T20:01:10.794Z,5.70
2022-10-21T20:05:20.310Z,6.37
2022-10-21T20:09:29.467Z,6.43
2022-10-21T20:13:38.826Z,5.73
2022-10-21T20:17:49.488Z,5.93
2022-10-21T20:21:58.686Z,4.97
2022-10-21T20:26:08.306Z,5.50
2022-10-21T20:30:17.727Z,6.47
2022-10-21T20:34:28.607Z,5.40
2022-10-21T20:38:38.089Z,5.40
2022-10-21T20:42:49.734Z,6.10
2022-10-21T20:46:59.245Z,6.00
2022-10-21T20:51:11.786Z,4.63
2022-10-21T20:55:21.067Z,6.60
2022-10-21T20:59:30.308Z,5.63
2022-10-21T21:03:42.128Z,5.87
2022-10-21T21:07:52.803Z,5.80
2022-10-21T21:12:04.084Z,6.40
2022-10-21T21:16:15.468Z,6.73
2022-10-21T21:20:24.648Z,6.63
2022-10-21T21:24:35.304Z,6.53
2022-10-21T21:28:44.429Z,7.53
2022-10-21T21:32:53.847Z,6.83
2022-10-21T21:37:03.026Z,5.73
2022-10-21T21:41:13.965Z,6.17
2022-10-21T21:45:23.145Z,6.10
2022-10-21T21:49:32.845Z,6.47
2022-10-21T21:53:42.072Z,6.20
2022-10-21T21:57:52.668Z,6.70
2022-10-21T22:02:03.845Z,6.23
2022-10-21T22:06:13.277Z,6.57
2022-10-21T22:10:22.906Z,6.07
2022-10-21T22:14:33.745Z,6.53
2022-10-21T22:18:42.968Z,5.93
2022-10-21T22:22:52.128Z,5.87
2022-10-21T22:27:01.307Z,5.07
2022-10-21T22:31:14.285Z,6.53
2022-10-21T22:35:23.365Z,5.10
2022-10-21T22:39:32.594Z,6.50
2022-10-21T22:43:43.054Z,6.07
2022-10-21T22:47:53.826Z,6.13
2022-10-21T22:52:03.055Z,6.90
2022-10-21T22:56:12.266Z,6.40
2022-10-21T23:00:21.745Z,7.07
2022-10-21T23:04:32.764Z,6.70
2022-10-21T23:08:42.152Z,7.20
2022-10-21T23:12:51.348Z,6.40
2022-10-21T23:17:00.506Z,6.90
2022-10-21T23:21:11.166Z,5.60
2022-10-21T23:25:20.631Z,6.60
2022-10-21T23:29:29.848Z,7.57
2022-10-21T23:33:38.987Z,5.83
2022-10-21T23:37:49.766Z,6.60
2022-10-21T23:41:58.910Z,7.47
2022-10-21T23:46:08.406Z,6.20
2022-10-21T23:50:17.985Z,5.90
2022-10-21T23:54:28.745Z,7.30
2022-10-21T23:58:38.048Z,6.20
